createdAt,value
2023-12-19T00:00:07.898Z,48.17
2023-12-19T00:03:05.846Z,46.35
2023-12-19T00:06:03.819Z,48.25
2023-12-19T00:09:01.574Z,45.08
2023-12-19T00:11:59.475Z,50.42
2023-12-19T00:14:57.226Z,48.35
2023-12-19T00:17:55.245Z,46.05
2023-12-19T00:20:55.472Z,45.72
2023-12-19T00:23:53.409Z,43.13
2023-12-19T00:26:51.151Z,41.05
2023-12-19T00:29:49.008Z,38.25
2023-12-19T00:32:47.070Z,35.95
2023-12-19T00:35:45.127Z,32.67
2023-12-19T00:38:44.982Z,33.80
2023-12-19T00:41:42.834Z,33.38
2023-12-19T00:44:40.606Z,29.67
2023-12-19T00:47:39.834Z,26.35
2023-12-19T00:50:37.742Z,27.27
2023-12-19T00:53:35.700Z,23.23
2023-12-19T00:56:34.287Z,20.65
2023-12-19T00:59:32.160Z,33.60
2023-12-19T01:02:32.750Z,28.55
2023-12-19T01:05:30.615Z,27.55
2023-12-19T01:08:28.669Z,26.13
2023-12-19T01:11:26.593Z,31.25
2023-12-19T01:14:24.363Z,37.30
2023-12-19T01:17:22.333Z,35.83
2023-12-19T01:20:20.152Z,37.78
2023-12-19T01:23:18.388Z,36.90
2023-12-19T01:26:20.449Z,35.75
2023-12-19T01:29:23.033Z,34.92
2023-12-19T01:32:20.879Z,32.55
2023-12-19T01:35:18.749Z,28.88
2023-12-19T01:38:16.586Z,24.60
2023-12-19T01:41:14.749Z,21.48
2023-12-19T01:44:20.187Z,22.10
2023-12-19T01:47:18.174Z,20.23
2023-12-19T01:50:17.482Z,17.65
2023-12-19T01:53:15.930Z,17.40
2023-12-19T01:56:16.820Z,18.80
2023-12-19T01:59:15.972Z,20.00
2023-12-19T02:02:13.885Z,22.00
2023-12-19T02:05:11.961Z,22.85
2023-12-19T02:08:09.748Z,29.23
2023-12-19T02:11:07.747Z,26.08
2023-12-19T02:14:05.622Z,29.38
2023-12-19T02:17:03.500Z,28.98
2023-12-19T02:20:01.610Z,28.00
2023-12-19T02:22:59.483Z,26.83
2023-12-19T02:25:57.388Z,24.80
2023-12-19T02:28:55.292Z,23.63
2023-12-19T02:31:53.261Z,23.75
2023-12-19T02:34:51.326Z,20.73
2023-12-19T02:37:49.153Z,20.70
2023-12-19T02:40:47.018Z,19.45
2023-12-19T02:43:53.883Z,19.17
2023-12-19T02:46:53.347Z,17.55
2023-12-19T02:49:51.232Z,20.30
2023-12-19T02:52:49.151Z,20.60
2023-12-19T02:55:46.979Z,18.85
2023-12-19T02:58:45.031Z,19.17
2023-12-19T03:01:49.390Z,20.00
2023-12-19T03:04:47.463Z,19.00
2023-12-19T03:07:45.363Z,20.42
2023-12-19T03:10:43.316Z,18.40
2023-12-19T03:13:41.377Z,18.50
2023-12-19T03:16:39.233Z,18.08
2023-12-19T03:19:38.323Z,18.45
2023-12-19T03:22:36.458Z,17.80
2023-12-19T03:25:34.181Z,17.40
2023-12-19T03:28:32.077Z,17.52
2023-12-19T03:31:29.920Z,18.83
2023-12-19T03:34:28.269Z,20.00
2023-12-19T03:37:26.620Z,20.35
2023-12-19T03:40:24.492Z,19.38
2023-12-19T03:43:22.348Z,20.20
2023-12-19T03:46:20.243Z,21.63
2023-12-19T03:49:18.042Z,21.65
2023-12-19T03:52:16.129Z,20.65
2023-12-19T03:55:13.898Z,21.00
2023-12-19T03:58:11.774Z,20.45
2023-12-19T04:01:09.742Z,21.10
2023-12-19T04:04:07.772Z,21.02
2023-12-19T04:07:05.834Z,20.92
2023-12-19T04:10:04.126Z,23.05
2023-12-19T04:13:02.066Z,24.27
2023-12-19T04:16:00.108Z,21.52
2023-12-19T04:18:58.055Z,20.45
2023-12-19T04:21:58.335Z,20.85
2023-12-19T04:24:56.145Z,20.98
2023-12-19T04:27:54.063Z,18.95
2023-12-19T04:30:51.930Z,17.30
2023-12-19T04:33:50.019Z,17.27
2023-12-19T04:36:47.867Z,18.20
2023-12-19T04:39:45.932Z,16.98
2023-12-19T04:42:44.050Z,15.63
2023-12-19T04:45:42.171Z,17.33
2023-12-19T04:48:40.049Z,18.55
2023-12-19T04:51:38.107Z,19.63
2023-12-19T04:54:35.986Z,20.38
2023-12-19T04:57:34.039Z,20.45
2023-12-19T05:00:31.858Z,22.17
2023-12-19T05:03:29.847Z,19.70
2023-12-19T05:06:27.801Z,19.23
2023-12-19T05:09:27.307Z,15.93
2023-12-19T05:12:25.796Z,14.00
2023-12-19T05:15:23.695Z,11.02
2023-12-19T05:18:21.548Z,10.77
2023-12-19T05:21:22.619Z,10.95
2023-12-19T05:24:20.451Z,10.35
2023-12-19T05:27:18.382Z,10.57
2023-12-19T05:30:17.279Z,9.77
2023-12-19T05:33:15.235Z,10.98
2023-12-19T05:36:14.416Z,11.13
2023-12-19T05:39:12.284Z,11.52
2023-12-19T05:42:10.630Z,10.57
2023-12-19T05:45:09.666Z,9.38
2023-12-19T05:48:08.012Z,9.13
2023-12-19T05:51:06.143Z,10.60
2023-12-19T05:54:03.882Z,10.20
2023-12-19T05:57:01.746Z,9.45
2023-12-19T06:00:00.493Z,10.27
2023-12-19T06:02:58.406Z,9.52
2023-12-19T06:05:56.355Z,9.77
2023-12-19T06:08:54.284Z,8.93
2023-12-19T06:11:52.048Z,8.80
2023-12-19T06:14:49.931Z,8.90
2023-12-19T06:17:48.744Z,8.45
2023-12-19T06:20:46.723Z,8.85
2023-12-19T06:23:44.525Z,10.30
2023-12-19T06:26:42.533Z,9.18
2023-12-19T06:29:40.273Z,9.00
2023-12-19T06:32:38.505Z,11.48
2023-12-19T06:35:40.570Z,14.20
2023-12-19T06:38:38.966Z,15.10
2023-12-19T06:41:37.484Z,14.43
2023-12-19T06:44:35.402Z,14.77
2023-12-19T06:47:33.232Z,13.55
2023-12-19T06:50:31.504Z,13.18
2023-12-19T06:53:29.302Z,13.68
2023-12-19T06:56:28.857Z,14.75
2023-12-19T06:59:29.190Z,14.10
2023-12-19T07:02:27.063Z,14.70
2023-12-19T07:05:25.187Z,15.85
2023-12-19T07:08:23.230Z,17.15
2023-12-19T07:11:23.397Z,15.60
2023-12-19T07:14:21.340Z,15.48
2023-12-19T07:17:19.087Z,15.73
2023-12-19T07:20:17.051Z,18.67
2023-12-19T07:23:14.796Z,17.00
2023-12-19T07:26:29.436Z,14.68
2023-12-19T07:29:27.296Z,17.05
2023-12-19T07:32:25.241Z,16.65
2023-12-19T07:35:23.148Z,17.52
2023-12-19T07:38:21.020Z,17.42
2023-12-19T07:41:18.922Z,17.05
2023-12-19T07:44:18.229Z,15.25
2023-12-19T07:47:16.031Z,15.50
2023-12-19T07:50:14.629Z,15.20
2023-12-19T07:53:12.442Z,14.13
2023-12-19T07:56:10.369Z,13.88
2023-12-19T07:59:08.360Z,14.20
2023-12-19T08:02:06.239Z,13.60
2023-12-19T08:05:06.239Z,11.57
2023-12-19T08:08:04.338Z,12.50
2023-12-19T08:11:02.093Z,11.70
2023-12-19T08:14:00.241Z,11.35
2023-12-19T08:16:58.021Z,11.05
2023-12-19T08:19:55.951Z,10.43
2023-12-19T08:22:53.797Z,9.82
2023-12-19T08:25:51.734Z,9.40
2023-12-19T08:28:49.919Z,9.48
2023-12-19T08:31:47.958Z,10.02
2023-12-19T08:34:45.853Z,10.05
2023-12-19T08:37:44.101Z,9.90
2023-12-19T08:40:41.972Z,10.45
2023-12-19T08:43:39.865Z,10.05
2023-12-19T08:46:37.605Z,10.65
2023-12-19T08:49:35.555Z,10.77
2023-12-19T08:52:34.175Z,11.68
2023-12-19T08:55:32.230Z,10.43
2023-12-19T08:58:30.181Z,11.85
2023-12-19T09:01:28.334Z,11.52
2023-12-19T09:04:26.227Z,12.27
2023-12-19T09:07:24.229Z,12.65
2023-12-19T09:10:25.583Z,12.68
2023-12-19T09:13:24.701Z,12.60
2023-12-19T09:16:22.611Z,12.75
2023-12-19T09:19:20.648Z,11.70
2023-12-19T09:22:18.513Z,13.82
2023-12-19T09:25:17.101Z,12.18
2023-12-19T09:28:15.442Z,11.57
2023-12-19T09:31:13.527Z,12.30
2023-12-19T09:34:14.529Z,13.25
2023-12-19T09:37:13.432Z,12.00
2023-12-19T09:40:17.544Z,11.55
2023-12-19T09:43:15.519Z,11.68
2023-12-19T09:46:15.057Z,12.20
2023-12-19T09:49:13.081Z,12.65
2023-12-19T09:52:13.872Z,11.85
2023-12-19T09:55:12.650Z,13.25
2023-12-19T09:58:12.552Z,13.75
2023-12-19T10:01:11.328Z,12.85
2023-12-19T10:04:15.441Z,11.30
2023-12-19T10:07:13.481Z,13.13
2023-12-19T10:10:13.089Z,12.10
2023-12-19T10:13:12.257Z,13.02
2023-12-19T10:16:30.964Z,12.65
2023-12-19T10:19:31.964Z,12.73
2023-12-19T10:22:29.831Z,13.32
2023-12-19T10:25:33.206Z,13.43
2023-12-19T10:28:39.422Z,13.10
2023-12-19T10:31:37.734Z,13.07
2023-12-19T10:34:36.095Z,13.13
2023-12-19T10:37:42.742Z,13.52
2023-12-19T10:40:42.958Z,13.90
2023-12-19T10:43:41.338Z,12.65
2023-12-19T10:46:40.509Z,13.80
2023-12-19T10:49:40.169Z,14.18
2023-12-19T10:52:41.565Z,13.77
2023-12-19T10:55:48.087Z,15.02
2023-12-19T10:58:49.826Z,15.23
2023-12-19T11:01:49.392Z,17.70
2023-12-19T11:04:56.479Z,16.95
2023-12-19T11:07:59.745Z,15.93
2023-12-19T11:11:15.985Z,14.95
2023-12-19T11:14:14.712Z,14.52
2023-12-19T11:17:20.637Z,14.85
2023-12-19T11:20:31.330Z,15.73
2023-12-19T11:23:45.980Z,14.30
2023-12-19T11:26:59.477Z,13.88
2023-12-19T11:29:57.301Z,15.10
2023-12-19T11:32:55.253Z,16.23
2023-12-19T11:35:53.083Z,16.80
2023-12-19T11:38:51.256Z,17.30
2023-12-19T11:41:49.013Z,15.77
2023-12-19T11:44:46.895Z,14.90
2023-12-19T11:47:46.673Z,14.98
2023-12-19T11:50:47.976Z,14.85
2023-12-19T11:53:45.715Z,13.52
2023-12-19T11:56:44.382Z,13.75
2023-12-19T11:59:48.270Z,14.40
2023-12-19T12:02:47.306Z,14.23
2023-12-19T12:05:45.172Z,15.75
2023-12-19T12:08:43.046Z,23.13
2023-12-19T12:11:56.621Z,21.50
2023-12-19T12:15:07.647Z,20.58
2023-12-19T12:18:07.437Z,22.83
2023-12-19T12:21:10.490Z,19.45
2023-12-19T12:24:08.726Z,20.50
2023-12-19T12:27:11.903Z,19.00
2023-12-19T12:30:12.396Z,21.60
2023-12-19T12:33:10.620Z,19.92
2023-12-19T12:36:12.902Z,18.92
2023-12-19T12:39:12.007Z,18.75
2023-12-19T12:42:09.855Z,20.98
2023-12-19T12:45:09.269Z,20.25
2023-12-19T12:48:15.506Z,19.45
2023-12-19T12:51:14.002Z,19.35
2023-12-19T12:54:11.983Z,19.23
2023-12-19T12:57:17.055Z,19.25
2023-12-19T13:00:24.186Z,20.48
2023-12-19T13:03:25.410Z,20.35
2023-12-19T13:06:23.451Z,20.80
2023-12-19T13:09:21.986Z,17.35
2023-12-19T13:12:19.906Z,19.77
2023-12-19T13:15:18.065Z,18.27
2023-12-19T13:18:15.829Z,18.05
2023-12-19T13:21:14.312Z,18.50
2023-12-19T13:24:12.171Z,20.00
2023-12-19T13:27:10.116Z,19.50
2023-12-19T13:30:10.336Z,20.73
2023-12-19T13:33:10.342Z,19.45
2023-12-19T13:36:08.442Z,19.02
2023-12-19T13:39:06.304Z,20.23
2023-12-19T13:42:06.828Z,19.65
2023-12-19T13:45:06.254Z,18.02
2023-12-19T13:48:08.124Z,18.40
2023-12-19T13:51:06.579Z,19.25
2023-12-19T13:54:04.714Z,20.20
2023-12-19T13:57:03.776Z,17.08
2023-12-19T14:00:01.599Z,19.10
2023-12-19T14:03:00.379Z,20.67
2023-12-19T14:06:00.312Z,19.98
2023-12-19T14:08:58.332Z,19.75
2023-12-19T14:11:56.633Z,19.73
2023-12-19T14:14:54.802Z,19.55
2023-12-19T14:17:52.632Z,21.05
2023-12-19T14:20:50.584Z,19.95
2023-12-19T14:23:50.209Z,20.83
2023-12-19T14:26:48.311Z,20.83
2023-12-19T14:29:46.206Z,17.73
2023-12-19T14:32:44.554Z,19.50
2023-12-19T14:35:43.784Z,19.75
2023-12-19T14:38:42.268Z,19.38
2023-12-19T14:41:40.927Z,18.52
2023-12-19T14:44:39.398Z,19.67
2023-12-19T14:47:37.258Z,19.20
2023-12-19T14:50:35.300Z,19.42
2023-12-19T14:53:33.096Z,19.45
2023-12-19T14:56:30.974Z,20.38
2023-12-19T14:59:28.725Z,17.33
2023-12-19T15:02:27.491Z,17.70
2023-12-19T15:05:26.727Z,19.73
2023-12-19T15:08:24.594Z,18.63
2023-12-19T15:11:22.341Z,19.30
2023-12-19T15:14:20.258Z,19.65
2023-12-19T15:17:18.013Z,22.45
2023-12-19T15:20:16.035Z,22.05
2023-12-19T15:23:13.850Z,25.85
2023-12-19T15:26:12.946Z,28.63
2023-12-19T15:29:14.269Z,28.60
2023-12-19T15:32:12.286Z,32.55
2023-12-19T15:35:10.323Z,32.03
2023-12-19T15:38:09.216Z,27.67
2023-12-19T15:41:10.509Z,26.05
2023-12-19T15:44:11.510Z,25.55
2023-12-19T15:47:10.720Z,26.13
2023-12-19T15:50:09.077Z,25.38
2023-12-19T15:53:06.967Z,24.98
2023-12-19T15:56:05.034Z,25.20
2023-12-19T15:59:05.501Z,26.38
2023-12-19T16:02:06.121Z,26.83
2023-12-19T16:05:05.515Z,29.40
2023-12-19T16:08:04.870Z,33.10
2023-12-19T16:11:02.699Z,34.53
2023-12-19T16:14:00.647Z,36.13
2023-12-19T16:16:59.413Z,38.10
2023-12-19T16:19:57.315Z,34.88
2023-12-19T16:22:55.100Z,40.60
2023-12-19T16:25:56.732Z,34.35
2023-12-19T16:28:54.510Z,32.13
2023-12-19T16:31:54.111Z,32.88
2023-12-19T16:34:53.079Z,30.70
2023-12-19T16:37:51.007Z,33.22
2023-12-19T16:40:52.388Z,29.60
2023-12-19T16:43:51.771Z,28.60
2023-12-19T16:46:49.662Z,28.80
2023-12-19T16:49:49.081Z,28.88
2023-12-19T16:52:47.367Z,29.85
2023-12-19T16:55:45.604Z,29.90
2023-12-19T16:58:44.711Z,31.40
2023-12-19T17:01:42.900Z,31.05
2023-12-19T17:04:40.914Z,31.25
2023-12-19T17:07:38.821Z,28.40
2023-12-19T17:10:38.035Z,27.55
2023-12-19T17:13:35.978Z,28.80
2023-12-19T17:16:33.845Z,35.08
2023-12-19T17:19:31.892Z,32.80
2023-12-19T17:22:29.674Z,31.45
2023-12-19T17:25:27.615Z,29.60
2023-12-19T17:28:25.359Z,26.63
2023-12-19T17:31:23.491Z,25.75
2023-12-19T17:34:21.447Z,26.92
2023-12-19T17:37:19.976Z,28.48
2023-12-19T17:40:18.649Z,28.10
2023-12-19T17:43:16.944Z,26.63
2023-12-19T17:46:17.255Z,24.92
2023-12-19T17:49:15.301Z,26.17
2023-12-19T17:52:13.309Z,26.05
2023-12-19T17:55:11.257Z,24.23
2023-12-19T17:58:09.047Z,22.65
2023-12-19T18:01:07.044Z,23.00
2023-12-19T18:04:05.008Z,23.48
2023-12-19T18:07:04.992Z,23.13
2023-12-19T18:10:04.289Z,21.83
2023-12-19T18:13:03.282Z,21.00
2023-12-19T18:16:02.616Z,20.77
2023-12-19T18:19:01.158Z,22.77
2023-12-19T18:21:59.157Z,19.95
2023-12-19T18:24:57.060Z,20.98
2023-12-19T18:27:54.860Z,21.27
2023-12-19T18:30:52.850Z,19.98
2023-12-19T18:33:50.724Z,18.45
2023-12-19T18:36:49.657Z,18.83
2023-12-19T18:39:47.513Z,18.55
2023-12-19T18:42:45.860Z,19.10
2023-12-19T18:45:44.001Z,19.23
2023-12-19T18:48:42.244Z,18.95
2023-12-19T18:51:40.184Z,18.77
2023-12-19T18:54:38.702Z,17.52
2023-12-19T18:57:38.767Z,19.05
2023-12-19T19:00:36.793Z,16.95
2023-12-19T19:03:34.920Z,17.85
2023-12-19T19:06:33.943Z,16.67
2023-12-19T19:09:34.070Z,19.02
2023-12-19T19:12:32.216Z,19.42
2023-12-19T19:15:29.998Z,19.15
2023-12-19T19:18:27.944Z,19.55
2023-12-19T19:21:26.122Z,17.48
2023-12-19T19:24:24.005Z,16.30
2023-12-19T19:27:21.749Z,17.05
2023-12-19T19:30:20.098Z,15.90
2023-12-19T19:33:19.109Z,15.65
2023-12-19T19:36:17.979Z,15.32
2023-12-19T19:39:15.842Z,14.27
2023-12-19T19:42:14.360Z,13.45
2023-12-19T19:45:13.799Z,13.55
2023-12-19T19:48:12.829Z,13.32
2023-12-19T19:51:11.693Z,12.02
2023-12-19T19:54:09.564Z,11.75
2023-12-19T19:57:07.576Z,11.70
2023-12-19T20:00:07.982Z,11.38
2023-12-19T20:03:05.978Z,12.02
2023-12-19T20:06:03.966Z,11.93
2023-12-19T20:09:01.748Z,12.10
2023-12-19T20:12:01.569Z,12.77
2023-12-19T20:15:01.100Z,13.07
2023-12-19T20:17:59.041Z,11.85
2023-12-19T20:20:57.192Z,11.02
2023-12-19T20:23:55.139Z,11.63
2023-12-19T20:26:53.267Z,11.73
2023-12-19T20:29:51.694Z,12.48
2023-12-19T20:32:50.048Z,12.60
2023-12-19T20:35:50.293Z,13.80
2023-12-19T20:38:48.080Z,12.38
2023-12-19T20:41:46.650Z,12.25
2023-12-19T20:44:45.439Z,11.73
2023-12-19T20:47:44.149Z,11.20
2023-12-19T20:50:42.064Z,11.73
2023-12-19T20:53:40.019Z,11.00
2023-12-19T20:56:39.379Z,9.90
2023-12-19T20:59:39.125Z,10.18
2023-12-19T21:02:37.432Z,9.80
2023-12-19T21:05:35.325Z,8.68
2023-12-19T21:08:33.090Z,9.25
2023-12-19T21:11:31.652Z,8.95
2023-12-19T21:14:29.419Z,9.52
2023-12-19T21:17:27.425Z,8.40
2023-12-19T21:20:26.151Z,8.40
2023-12-19T21:23:25.771Z,8.85
2023-12-19T21:26:25.799Z,8.95
2023-12-19T21:29:23.728Z,9.60
2023-12-19T21:32:21.726Z,8.68
2023-12-19T21:35:19.817Z,8.07
2023-12-19T21:38:17.625Z,8.38
2023-12-19T21:41:16.576Z,8.93
2023-12-19T21:44:14.945Z,7.78
2023-12-19T21:47:13.032Z,7.60
2023-12-19T21:50:12.439Z,7.90
2023-12-19T21:53:12.642Z,7.10
2023-12-19T21:56:10.496Z,7.13
2023-12-19T21:59:09.338Z,6.80
2023-12-19T22:02:07.871Z,6.97
2023-12-19T22:05:06.241Z,7.57
2023-12-19T22:08:04.334Z,8.40
2023-12-19T22:11:02.538Z,7.07
2023-12-19T22:14:00.273Z,7.53
2023-12-19T22:16:58.248Z,7.53
2023-12-19T22:19:56.489Z,7.75
2023-12-19T22:22:55.169Z,7.72
2023-12-19T22:25:53.805Z,7.07
2023-12-19T22:28:51.674Z,7.70
2023-12-19T22:31:49.569Z,8.20
2023-12-19T22:34:47.448Z,7.90
2023-12-19T22:37:45.512Z,8.15
2023-12-19T22:40:43.557Z,7.65
2023-12-19T22:43:42.550Z,7.30
2023-12-19T22:46:41.441Z,7.28
2023-12-19T22:49:40.985Z,7.07
2023-12-19T22:52:39.008Z,6.68
2023-12-19T22:55:52.117Z,6.72
2023-12-19T23:01:53.729Z,7.03
2023-12-19T23:04:53.306Z,7.53
2023-12-19T23:07:51.554Z,8.07
2023-12-19T23:10:50.037Z,6.68
2023-12-19T23:13:47.810Z,7.57
2023-12-19T23:16:46.014Z,7.40
2023-12-19T23:19:43.949Z,7.68
2023-12-19T23:22:41.948Z,7.25
2023-12-19T23:25:39.711Z,7.63
2023-12-19T23:28:37.549Z,7.72
2023-12-19T23:31:41.448Z,7.65
2023-12-19T23:34:40.941Z,7.00
2023-12-19T23:37:38.770Z,7.82
2023-12-19T23:40:36.695Z,7.75
2023-12-19T23:43:34.697Z,7.47
2023-12-19T23:46:32.559Z,7.55
2023-12-19T23:49:30.419Z,7.47
2023-12-19T23:52:28.408Z,7.28
2023-12-19T23:55:26.169Z,6.93
2023-12-19T23:58:24.094Z,7.43
